createdAt,value
2019-02-26T00:00:49.625Z,0.12
2019-02-26T00:03:19.385Z,0.32
2019-02-26T00:05:43.010Z,0.32
2019-02-26T00:08:08.840Z,0.36
2019-02-26T00:10:37.124Z,0.20
2019-02-26T00:13:02.501Z,0.25
2019-02-26T00:15:31.315Z,-0.07
2019-02-26T00:17:56.100Z,-0.31
2019-02-26T00:20:21.934Z,-0.43
2019-02-26T00:22:47.772Z,-0.48
2019-02-26T00:25:15.481Z,-0.46
2019-02-26T00:27:41.358Z,-0.50
2019-02-26T00:30:48.850Z,-0.35
2019-02-26T00:33:14.690Z,-0.51
2019-02-26T00:35:41.620Z,-0.60
2019-02-26T00:38:08.965Z,-0.67
2019-02-26T00:40:37.139Z,-0.68
2019-02-26T00:43:04.771Z,-0.80
2019-02-26T00:45:32.327Z,-0.86
2019-02-26T00:47:59.140Z,-0.79
2019-02-26T00:50:24.971Z,-0.53
2019-02-26T00:52:52.329Z,-0.44
2019-02-26T00:55:18.579Z,-0.36
2019-02-26T00:57:44.438Z,-0.30
2019-02-26T01:00:30.854Z,-0.53
2019-02-26T01:02:57.886Z,-0.53
2019-02-26T01:05:23.728Z,-0.42
2019-02-26T01:07:52.110Z,-0.29
2019-02-26T01:10:20.618Z,-0.49
2019-02-26T01:12:45.033Z,-0.33
2019-02-26T01:15:52.507Z,-0.19
2019-02-26T01:18:20.117Z,-0.11
2019-02-26T01:20:48.334Z,-0.21
2019-02-26T01:23:13.820Z,-0.38
2019-02-26T01:25:39.640Z,-0.28
2019-02-26T01:28:05.490Z,-0.22
2019-02-26T01:30:33.724Z,-0.27
2019-02-26T01:33:00.567Z,-0.31
2019-02-26T01:35:28.855Z,-0.50
2019-02-26T01:37:55.771Z,-0.44
2019-02-26T01:40:25.230Z,-0.45
2019-02-26T01:42:52.273Z,-0.55
2019-02-26T01:45:19.510Z,-0.41
2019-02-26T01:47:48.263Z,-0.58
2019-02-26T01:50:15.743Z,-0.65
2019-02-26T01:52:41.113Z,-0.56
2019-02-26T01:55:50.455Z,-0.58
2019-02-26T01:58:16.765Z,-0.49
2019-02-26T02:00:44.078Z,-0.36
2019-02-26T02:03:09.918Z,-0.31
2019-02-26T02:05:35.727Z,-0.34
2019-02-26T02:08:01.550Z,-0.52
2019-02-26T02:10:27.357Z,-0.47
2019-02-26T02:12:55.186Z,-0.41
2019-02-26T02:15:42.250Z,-0.44
2019-02-26T02:18:08.650Z,-0.45
2019-02-26T02:20:34.461Z,-0.51
2019-02-26T02:23:00.913Z,-0.74
2019-02-26T02:25:31.065Z,-0.78
2019-02-26T02:27:57.498Z,-0.72
2019-02-26T02:30:30.278Z,-0.62
2019-02-26T02:32:54.354Z,-0.77
2019-02-26T02:35:19.616Z,-0.88
2019-02-26T02:37:46.623Z,-0.88
2019-02-26T02:43:07.966Z,-0.85
2019-02-26T02:45:34.545Z,-0.58
2019-02-26T02:48:02.923Z,-0.59
2019-02-26T02:50:28.098Z,-0.63
2019-02-26T02:52:56.096Z,-0.62
2019-02-26T02:55:21.651Z,-0.62
2019-02-26T02:57:51.885Z,-0.64
2019-02-26T03:02:53.773Z,-0.60
2019-02-26T03:05:20.164Z,-0.77
2019-02-26T03:07:50.433Z,-0.73
2019-02-26T03:10:13.912Z,-0.71
2019-02-26T03:12:39.901Z,-0.67
2019-02-26T03:15:48.382Z,-0.68
2019-02-26T03:18:16.916Z,-0.68
2019-02-26T03:20:42.842Z,-0.78
2019-02-26T03:23:11.420Z,-0.83
2019-02-26T03:25:36.408Z,-0.77
2019-02-26T03:28:02.237Z,-0.92
2019-02-26T03:30:36.924Z,-0.81
2019-02-26T03:33:00.317Z,-0.90
2019-02-26T03:35:23.897Z,-0.95
2019-02-26T03:37:54.136Z,-1.21
2019-02-26T03:40:20.809Z,-1.10
2019-02-26T03:42:46.749Z,-1.35
2019-02-26T03:45:54.232Z,-1.30
2019-02-26T03:48:20.564Z,-1.35
2019-02-26T03:50:47.771Z,-1.29
2019-02-26T03:53:13.599Z,-1.43
2019-02-26T03:55:41.433Z,-1.49
2019-02-26T03:58:07.168Z,-1.30
2019-02-26T04:00:34.730Z,-1.15
2019-02-26T04:03:00.714Z,-1.05
2019-02-26T04:05:26.552Z,-0.84
2019-02-26T04:07:55.596Z,-0.89
2019-02-26T04:10:20.315Z,-0.85
2019-02-26T04:12:48.735Z,-1.08
2019-02-26T04:15:36.342Z,-1.23
2019-02-26T04:18:01.550Z,-1.29
2019-02-26T04:20:27.957Z,-1.21
2019-02-26T04:22:56.843Z,-1.17
2019-02-26T04:26:02.551Z,-1.10
2019-02-26T04:29:10.064Z,-1.11
2019-02-26T04:32:18.953Z,-0.88
2019-02-26T04:34:51.233Z,-0.85
2019-02-26T04:37:30.705Z,-1.09
2019-02-26T04:40:12.047Z,-1.63
2019-02-26T04:42:50.116Z,-1.83
2019-02-26T04:45:36.151Z,-1.74
2019-02-26T04:48:06.086Z,-1.70
2019-02-26T04:50:35.062Z,-1.45
2019-02-26T04:53:02.029Z,-1.17
2019-02-26T04:55:29.714Z,-1.06
2019-02-26T04:57:56.299Z,-1.10
2019-02-26T05:00:23.607Z,-1.18
2019-02-26T05:02:50.042Z,-1.15
2019-02-26T05:05:15.916Z,-1.12
2019-02-26T05:07:44.488Z,-1.15
2019-02-26T05:10:09.674Z,-1.05
2019-02-26T05:12:37.950Z,-1.16
2019-02-26T05:15:04.921Z,-1.31
2019-02-26T05:17:33.263Z,-1.46
2019-02-26T05:19:58.631Z,-1.60
2019-02-26T05:22:27.256Z,-1.79
2019-02-26T05:24:52.881Z,-1.62
2019-02-26T05:27:22.165Z,-1.42
2019-02-26T05:29:48.956Z,-1.55
2019-02-26T05:32:14.392Z,-1.47
2019-02-26T05:34:42.780Z,-1.42
2019-02-26T05:37:11.002Z,-1.43
2019-02-26T05:39:35.879Z,-1.34
2019-02-26T05:42:03.948Z,-1.36
2019-02-26T05:44:29.522Z,-1.37
2019-02-26T05:46:56.799Z,-1.62
2019-02-26T05:49:23.165Z,-1.85
2019-02-26T05:51:49.047Z,-1.56
2019-02-26T05:54:18.028Z,-1.56
2019-02-26T05:56:43.585Z,-1.60
2019-02-26T05:59:13.312Z,-1.71
2019-02-26T06:01:38.682Z,-1.60
2019-02-26T06:04:06.774Z,-1.41
2019-02-26T06:06:32.283Z,-1.46
2019-02-26T06:08:59.989Z,-1.72
2019-02-26T06:11:28.366Z,-1.63
2019-02-26T06:13:56.311Z,-1.47
2019-02-26T06:16:22.529Z,-1.39
2019-02-26T06:18:51.905Z,-1.47
2019-02-26T06:21:18.981Z,-1.51
2019-02-26T06:24:27.179Z,-1.64
2019-02-26T06:26:54.268Z,-1.70
2019-02-26T06:29:24.432Z,-1.75
2019-02-26T06:31:49.424Z,-1.69
2019-02-26T06:34:16.325Z,-1.63
2019-02-26T06:36:44.322Z,-1.52
2019-02-26T06:39:11.027Z,-1.82
2019-02-26T06:41:39.593Z,-1.67
2019-02-26T06:44:04.575Z,-1.77
2019-02-26T06:46:31.916Z,-1.79
2019-02-26T06:48:58.170Z,-1.67
2019-02-26T06:51:26.023Z,-1.73
2019-02-26T06:53:54.101Z,-1.92
2019-02-26T06:56:19.445Z,-1.80
2019-02-26T07:01:40.105Z,-1.79
2019-02-26T07:04:07.030Z,-1.63
2019-02-26T07:06:34.834Z,-1.46
2019-02-26T07:09:00.561Z,-1.29
2019-02-26T07:11:28.025Z,-1.22
2019-02-26T07:13:54.113Z,-1.07
2019-02-26T07:16:20.699Z,-1.08
2019-02-26T07:18:47.676Z,-1.03
2019-02-26T07:21:13.520Z,-1.24
2019-02-26T07:23:40.049Z,-1.16
2019-02-26T07:26:07.069Z,-1.03
2019-02-26T07:28:32.998Z,-1.04
2019-02-26T07:31:00.438Z,-0.95
2019-02-26T07:33:27.403Z,-0.84
2019-02-26T07:35:56.577Z,-0.61
2019-02-26T07:38:23.101Z,-0.39
2019-02-26T07:40:49.806Z,-0.17
2019-02-26T07:43:17.902Z,0.00
2019-02-26T07:45:43.360Z,0.11
2019-02-26T07:48:09.271Z,0.27
2019-02-26T07:50:39.714Z,0.37
2019-02-26T07:53:02.850Z,0.41
2019-02-26T07:55:48.559Z,0.65
2019-02-26T07:58:15.582Z,0.65
2019-02-26T08:00:45.310Z,0.76
2019-02-26T08:03:09.870Z,0.82
2019-02-26T08:05:35.688Z,0.91
2019-02-26T08:08:01.498Z,1.13
2019-02-26T08:10:27.329Z,1.36
2019-02-26T08:12:53.176Z,1.74
2019-02-26T08:16:02.469Z,1.80
2019-02-26T08:18:28.366Z,2.10
2019-02-26T08:20:56.799Z,2.21
2019-02-26T08:23:23.700Z,2.40
2019-02-26T08:25:52.015Z,2.60
2019-02-26T08:28:18.539Z,2.56
2019-02-26T08:30:47.471Z,2.66
2019-02-26T08:33:12.882Z,2.81
2019-02-26T08:35:38.764Z,2.56
2019-02-26T08:40:38.419Z,2.64
2019-02-26T08:43:04.276Z,2.65
2019-02-26T08:45:50.164Z,2.91
2019-02-26T08:48:35.906Z,3.03
2019-02-26T08:51:05.356Z,3.11
2019-02-26T08:53:31.478Z,3.43
2019-02-26T08:55:58.890Z,3.49
2019-02-26T08:58:25.743Z,3.57
2019-02-26T09:00:52.697Z,3.90
2019-02-26T09:03:20.413Z,3.95
2019-02-26T09:05:46.268Z,4.06
2019-02-26T09:08:14.017Z,4.11
2019-02-26T09:10:41.350Z,4.19
2019-02-26T09:13:09.358Z,4.13
2019-02-26T09:15:56.444Z,4.61
2019-02-26T09:18:27.473Z,4.61
2019-02-26T09:20:50.736Z,4.58
2019-02-26T09:23:20.876Z,4.71
2019-02-26T09:25:48.581Z,4.92
2019-02-26T09:28:12.073Z,5.09
2019-02-26T09:30:39.014Z,5.26
2019-02-26T09:33:06.380Z,5.52
2019-02-26T09:35:33.633Z,5.56
2019-02-26T09:38:00.973Z,5.62
2019-02-26T09:40:29.242Z,5.77
2019-02-26T09:42:58.128Z,5.95
2019-02-26T09:45:43.569Z,5.99
2019-02-26T09:48:12.280Z,6.13
2019-02-26T09:50:38.578Z,6.21
2019-02-26T09:53:25.995Z,6.48
2019-02-26T09:55:51.974Z,6.48
2019-02-26T09:58:20.058Z,6.81
2019-02-26T10:01:06.822Z,7.13
2019-02-26T10:03:38.556Z,7.13
2019-02-26T10:06:01.249Z,7.30
2019-02-26T10:08:28.145Z,7.56
2019-02-26T10:10:56.931Z,7.69
2019-02-26T10:13:24.988Z,7.69
2019-02-26T10:15:50.538Z,7.77
2019-02-26T10:18:16.371Z,8.07
2019-02-26T10:20:43.322Z,8.24
2019-02-26T10:23:09.994Z,8.82
2019-02-26T10:25:38.673Z,8.82
2019-02-26T10:28:08.824Z,9.04
2019-02-26T10:30:33.933Z,9.04
2019-02-26T10:33:02.739Z,9.17
2019-02-26T10:35:33.371Z,9.56
2019-02-26T10:37:59.715Z,9.54
2019-02-26T10:40:34.232Z,9.46
2019-02-26T10:42:52.950Z,9.75
2019-02-26T10:45:30.651Z,10.17
2019-02-26T10:47:58.730Z,10.27
2019-02-26T10:50:31.047Z,10.36
2019-02-26T10:52:57.777Z,10.44
2019-02-26T10:55:24.277Z,10.12
2019-02-26T10:57:49.238Z,10.12
2019-02-26T11:00:18.607Z,10.55
2019-02-26T11:02:46.155Z,10.44
2019-02-26T11:05:14.295Z,10.71
2019-02-26T11:07:40.220Z,10.89
2019-02-26T11:10:08.205Z,10.77
2019-02-26T11:12:34.131Z,10.91
2019-02-26T11:15:01.619Z,10.91
2019-02-26T11:17:28.935Z,11.27
2019-02-26T11:19:58.051Z,11.27
2019-02-26T11:22:25.180Z,11.27
2019-02-26T11:24:53.302Z,11.38
2019-02-26T11:27:18.727Z,12.22
2019-02-26T11:29:44.619Z,12.22
2019-02-26T11:32:12.949Z,12.46
2019-02-26T11:34:38.437Z,13.12
2019-02-26T11:37:08.661Z,13.12
2019-02-26T11:39:32.099Z,13.39
2019-02-26T11:41:59.510Z,13.49
2019-02-26T11:44:27.625Z,11.97
2019-02-26T11:46:54.382Z,13.41
2019-02-26T11:49:21.819Z,13.29
2019-02-26T11:51:47.846Z,13.58
2019-02-26T11:54:15.045Z,13.65
2019-02-26T11:56:44.097Z,13.65
2019-02-26T11:59:11.725Z,12.95
2019-02-26T12:01:39.432Z,14.17
2019-02-26T12:04:06.042Z,14.05
2019-02-26T12:06:32.750Z,14.17
2019-02-26T12:08:58.627Z,14.22
2019-02-26T12:11:24.477Z,14.22
2019-02-26T12:13:53.039Z,14.42
2019-02-26T12:16:18.090Z,14.57
2019-02-26T12:18:45.005Z,14.86
2019-02-26T12:21:12.916Z,14.76
2019-02-26T12:23:39.728Z,15.00
2019-02-26T12:26:06.886Z,15.17
2019-02-26T12:28:37.183Z,15.51
2019-02-26T12:31:01.261Z,15.59
2019-02-26T12:33:32.206Z,15.50
2019-02-26T12:35:58.983Z,15.38
2019-02-26T12:38:23.831Z,15.47
2019-02-26T12:40:50.759Z,15.44
2019-02-26T12:43:19.160Z,15.48
2019-02-26T12:45:45.377Z,15.86
2019-02-26T12:48:14.229Z,15.90
2019-02-26T12:50:40.406Z,15.77
2019-02-26T12:53:09.526Z,15.92
2019-02-26T12:55:35.893Z,16.24
2019-02-26T12:58:02.282Z,16.58
2019-02-26T13:00:28.137Z,16.63
2019-02-26T13:02:54.036Z,16.70
2019-02-26T13:05:22.943Z,16.91
2019-02-26T13:07:47.859Z,16.66
2019-02-26T13:10:22.298Z,16.80
2019-02-26T13:12:52.725Z,15.65
2019-02-26T13:15:19.303Z,17.15
2019-02-26T13:17:48.883Z,17.29
2019-02-26T13:20:22.819Z,17.36
2019-02-26T13:22:48.802Z,17.14
2019-02-26T13:27:45.292Z,16.84
2019-02-26T13:30:13.529Z,17.07
2019-02-26T13:32:55.353Z,17.50
2019-02-26T13:35:09.211Z,17.49
2019-02-26T13:37:36.589Z,17.02
2019-02-26T13:40:09.413Z,16.89
2019-02-26T13:42:37.316Z,17.02
2019-02-26T13:45:06.890Z,16.99
2019-02-26T13:47:32.873Z,17.47
2019-02-26T13:49:58.743Z,17.35
2019-02-26T13:52:24.628Z,17.57
2019-02-26T13:54:50.633Z,17.25
2019-02-26T13:57:16.554Z,16.38
2019-02-26T13:59:42.390Z,17.46
2019-02-26T14:02:08.225Z,17.77
2019-02-26T14:04:34.145Z,17.22
2019-02-26T14:06:59.993Z,16.75
2019-02-26T14:09:25.878Z,17.24
2019-02-26T14:11:51.828Z,17.03
2019-02-26T14:14:17.684Z,17.34
2019-02-26T14:16:43.778Z,17.60
2019-02-26T14:19:09.641Z,17.39
2019-02-26T14:21:35.489Z,17.27
2019-02-26T14:24:01.357Z,17.09
2019-02-26T14:26:42.167Z,17.16
2019-02-26T14:29:08.265Z,17.25
2019-02-26T14:31:37.077Z,17.14
2019-02-26T14:34:13.035Z,17.15
2019-02-26T14:36:39.246Z,17.29
2019-02-26T14:39:06.713Z,16.72
2019-02-26T14:41:40.798Z,17.06
2019-02-26T14:44:07.218Z,17.35
2019-02-26T14:46:33.576Z,17.61
2019-02-26T14:49:00.111Z,17.04
2019-02-26T14:51:28.350Z,17.30
2019-02-26T14:53:54.609Z,17.24
2019-02-26T14:56:20.526Z,17.07
2019-02-26T14:58:48.279Z,17.36
2019-02-26T15:01:14.316Z,17.36
2019-02-26T15:03:44.746Z,16.51
2019-02-26T15:06:19.820Z,16.38
2019-02-26T15:08:46.091Z,16.02
2019-02-26T15:11:12.171Z,16.83
2019-02-26T15:13:38.545Z,16.83
2019-02-26T15:16:04.389Z,16.86
2019-02-26T15:18:31.102Z,17.69
2019-02-26T15:20:57.052Z,16.66
2019-02-26T15:23:22.958Z,16.81
2019-02-26T15:25:48.827Z,16.48
2019-02-26T15:28:14.687Z,16.46
2019-02-26T15:30:40.681Z,16.31
2019-02-26T15:33:11.171Z,16.35
2019-02-26T15:35:34.532Z,14.45
2019-02-26T15:38:00.452Z,15.53
2019-02-26T15:40:26.338Z,15.53
2019-02-26T15:42:54.388Z,15.07
2019-02-26T15:45:23.945Z,15.02
2019-02-26T15:47:50.496Z,14.88
2019-02-26T15:50:17.784Z,14.81
2019-02-26T15:52:43.782Z,14.69
2019-02-26T15:55:17.917Z,14.51
2019-02-26T15:57:43.813Z,14.47
2019-02-26T16:00:15.950Z,14.61
2019-02-26T16:02:43.748Z,13.33
2019-02-26T16:05:10.181Z,14.42
2019-02-26T16:07:36.154Z,14.63
2019-02-26T16:10:02.514Z,14.45
2019-02-26T16:12:28.450Z,14.29
2019-02-26T16:14:54.351Z,14.12
2019-02-26T16:17:20.197Z,14.15
2019-02-26T16:19:46.120Z,14.13
2019-02-26T16:22:11.988Z,13.76
2019-02-26T16:24:37.896Z,13.64
2019-02-26T16:27:04.029Z,13.63
2019-02-26T16:29:30.197Z,13.63
2019-02-26T16:31:57.305Z,13.58
2019-02-26T16:34:23.566Z,13.65
2019-02-26T16:36:49.459Z,13.47
2019-02-26T16:42:17.147Z,13.23
2019-02-26T16:44:46.888Z,13.00
2019-02-26T16:47:15.421Z,12.82
2019-02-26T16:49:51.713Z,12.82
2019-02-26T16:52:18.588Z,12.42
2019-02-26T16:54:46.563Z,12.39
2019-02-26T16:57:30.942Z,12.35
2019-02-26T16:59:56.999Z,12.45
2019-02-26T17:02:27.208Z,12.23
2019-02-26T17:04:51.664Z,12.16
2019-02-26T17:07:20.219Z,11.85
2019-02-26T17:09:46.711Z,11.57
2019-02-26T17:12:13.084Z,11.38
2019-02-26T17:14:39.616Z,11.25
2019-02-26T17:17:06.014Z,11.03
2019-02-26T17:19:31.974Z,9.82
2019-02-26T17:22:01.800Z,10.86
2019-02-26T17:24:29.561Z,10.73
2019-02-26T17:26:55.588Z,10.65
2019-02-26T17:29:22.185Z,10.55
2019-02-26T17:31:48.183Z,10.50
2019-02-26T17:34:14.235Z,10.54
2019-02-26T17:36:40.072Z,10.55
2019-02-26T17:46:38.221Z,10.12
2019-02-26T17:47:41.348Z,10.12
2019-02-26T17:50:28.650Z,10.25
2019-02-26T17:53:17.380Z,10.25
2019-02-26T17:55:34.858Z,9.81
2019-02-26T17:58:04.325Z,9.70
2019-02-26T18:00:33.875Z,9.53
2019-02-26T18:03:15.450Z,9.53
2019-02-26T18:11:24.392Z,9.67
2019-02-26T18:14:00.208Z,9.73
2019-02-26T18:16:26.622Z,9.56
2019-02-26T18:18:52.498Z,9.56
2019-02-26T18:21:18.524Z,9.43
2019-02-26T18:23:44.425Z,9.33
2019-02-26T18:26:10.305Z,9.23
2019-02-26T18:28:36.879Z,9.08
2019-02-26T18:31:02.929Z,8.47
2019-02-26T18:33:28.807Z,8.47
2019-02-26T18:35:54.647Z,8.28
2019-02-26T18:38:20.508Z,8.17
2019-02-26T18:40:46.596Z,8.43
2019-02-26T18:43:14.427Z,8.26
2019-02-26T18:45:43.847Z,8.28
2019-02-26T18:48:09.759Z,8.28
2019-02-26T18:50:35.714Z,8.18
2019-02-26T18:53:01.630Z,8.13
2019-02-26T18:55:30.232Z,8.36
2019-02-26T18:57:55.503Z,8.20
2019-02-26T19:00:25.894Z,8.07
2019-02-26T19:02:51.617Z,8.07
2019-02-26T19:05:21.113Z,8.15
2019-02-26T19:07:48.393Z,7.87
2019-02-26T19:10:19.404Z,8.24
2019-02-26T19:12:44.001Z,8.24
2019-02-26T19:15:20.449Z,7.90
2019-02-26T19:17:49.145Z,7.94
2019-02-26T19:20:26.741Z,8.12
2019-02-26T19:22:52.763Z,8.12
2019-02-26T19:25:21.809Z,7.77
2019-02-26T19:27:53.179Z,7.77
2019-02-26T19:30:22.099Z,8.03
2019-02-26T19:32:52.016Z,7.88
2019-02-26T19:35:19.831Z,8.02
2019-02-26T19:37:52.736Z,8.00
2019-02-26T19:40:25.413Z,8.00
2019-02-26T19:42:52.892Z,7.90
2019-02-26T19:45:19.182Z,7.66
2019-02-26T19:47:49.219Z,7.66
2019-02-26T19:50:15.888Z,7.57
2019-02-26T19:52:42.066Z,7.57
2019-02-26T19:55:12.877Z,7.34
2019-02-26T19:57:46.566Z,7.34
2019-02-26T20:00:14.185Z,7.35
2019-02-26T20:02:43.628Z,7.15
2019-02-26T20:05:13.901Z,7.07
2019-02-26T20:07:40.626Z,7.13
2019-02-26T20:10:15.769Z,7.58
2019-02-26T20:12:44.670Z,7.56
2019-02-26T20:15:13.333Z,7.33
2019-02-26T20:17:39.886Z,7.44
2019-02-26T20:20:12.276Z,7.30
2019-02-26T20:22:38.789Z,7.30
2019-02-26T20:25:08.215Z,7.08
2019-02-26T20:27:36.048Z,6.87
2019-02-26T20:30:05.349Z,6.87
2019-02-26T20:32:31.658Z,6.70
2019-02-26T20:34:57.933Z,6.55
2019-02-26T20:37:26.341Z,6.55
2019-02-26T20:39:53.094Z,6.43
2019-02-26T20:42:19.103Z,6.22
2019-02-26T20:44:45.472Z,6.20
2019-02-26T20:47:11.398Z,6.20
2019-02-26T20:49:37.275Z,4.70
2019-02-26T20:52:03.181Z,6.20
2019-02-26T20:54:29.127Z,6.14
2019-02-26T21:08:30.731Z,5.95
2019-02-26T21:14:21.149Z,5.82
2019-02-26T21:17:20.792Z,5.84
2019-02-26T21:31:19.630Z,5.81
2019-02-26T21:44:28.464Z,5.68
2019-02-26T21:46:56.188Z,5.74
2019-02-26T21:49:22.214Z,5.70
2019-02-26T21:51:48.087Z,5.70
2019-02-26T21:54:13.965Z,5.68
2019-02-26T21:56:39.821Z,5.71
2019-02-26T21:59:05.667Z,5.60
2019-02-26T22:01:31.560Z,5.86
2019-02-26T22:03:58.465Z,5.75
2019-02-26T22:06:25.041Z,5.88
2019-02-26T22:08:50.970Z,5.70
2019-02-26T22:11:18.621Z,5.60
2019-02-26T22:13:44.575Z,5.34
2019-02-26T22:16:10.486Z,5.41
2019-02-26T22:18:36.379Z,5.38
2019-02-26T22:21:02.287Z,5.21
2019-02-26T22:23:29.382Z,5.29
2019-02-26T22:25:55.550Z,5.37
2019-02-26T22:28:23.003Z,5.10
2019-02-26T22:30:48.979Z,3.83
2019-02-26T22:33:14.878Z,4.77
2019-02-26T22:35:40.741Z,4.77
2019-02-26T22:38:06.650Z,4.93
2019-02-26T22:40:34.225Z,5.20
2019-02-26T22:43:00.204Z,4.95
2019-02-26T22:45:27.967Z,4.95
2019-02-26T22:47:53.891Z,4.72
2019-02-26T22:50:19.762Z,4.72
2019-02-26T22:52:45.657Z,4.64
2019-02-26T22:55:17.561Z,4.62
2019-02-26T22:57:43.737Z,4.63
2019-02-26T23:00:50.223Z,4.59
2019-02-26T23:03:16.131Z,4.49
2019-02-26T23:05:41.991Z,4.49
2019-02-26T23:08:09.611Z,4.46
2019-02-26T23:10:35.610Z,4.40
2019-02-26T23:13:01.449Z,3.92
2019-02-26T23:15:27.852Z,4.01
2019-02-26T23:17:58.127Z,3.92
2019-02-26T23:20:21.610Z,3.92
2019-02-26T23:23:02.845Z,3.85
2019-02-26T23:25:29.217Z,3.91
2019-02-26T23:27:55.097Z,3.91
2019-02-26T23:30:21.162Z,3.94
2019-02-26T23:32:47.014Z,3.99
2019-02-26T23:35:13.480Z,3.78
2019-02-26T23:37:39.377Z,3.71
2019-02-26T23:40:07.935Z,3.39
2019-02-26T23:42:33.809Z,3.61
2019-02-26T23:44:59.656Z,3.61
2019-02-26T23:47:51.416Z,3.67
2019-02-26T23:50:17.283Z,3.64
2019-02-26T23:52:43.140Z,3.60
2019-02-26T23:55:13.119Z,3.75
2019-02-26T23:57:37.576Z,3.74
